createdAt,value
2022-09-25T10:54:18.297Z,98577.91
2022-09-25T10:56:47.870Z,98580.16
2022-09-25T10:59:20.231Z,98586.97
2022-09-25T11:01:51.255Z,98583.47
2022-09-25T11:04:24.769Z,98590.47
2022-09-25T11:06:58.270Z,98591.69
2022-09-25T11:09:30.054Z,98592.88
2022-09-25T11:12:08.751Z,98594.91
2022-09-25T11:14:37.867Z,98596.31
2022-09-25T11:17:10.209Z,98594.91
2022-09-25T11:19:40.016Z,98605.84
2022-09-25T11:22:17.721Z,98603.75
2022-09-25T11:25:00.870Z,98614.09
2022-09-25T11:27:36.109Z,98613.84
2022-09-25T11:30:08.010Z,98614.22
2022-09-25T11:32:51.638Z,98611.53
2022-09-25T11:35:34.720Z,98609.44
2022-09-25T11:38:12.239Z,98619.97
2022-09-25T11:41:08.224Z,98617.91
2022-09-25T11:43:57.120Z,98625.38
2022-09-25T11:46:34.012Z,98632.41
2022-09-25T11:49:12.425Z,98627.38
2022-09-25T11:52:18.897Z,98632.31
2022-09-25T11:55:20.011Z,98626.13
2022-09-25T11:58:01.055Z,98637.50
2022-09-25T12:00:41.108Z,98636.22
2022-09-25T12:03:35.383Z,98633.06
2022-09-25T12:06:22.398Z,98633.69
2022-09-25T12:09:07.119Z,98634.25
2022-09-25T12:11:47.617Z,98635.94
2022-09-25T12:14:28.121Z,98636.31
2022-09-25T12:17:04.696Z,98642.28
2022-09-25T12:19:42.552Z,98635.84
2022-09-25T12:22:21.778Z,98640.56
2022-09-25T12:25:01.472Z,98640.56
2022-09-25T12:27:46.861Z,98650.91
2022-09-25T12:30:21.402Z,98646.53
2022-09-25T12:33:04.555Z,98653.59
2022-09-25T12:35:44.288Z,98659.00
2022-09-25T12:38:21.068Z,98654.41
2022-09-25T12:40:55.655Z,98666.00
2022-09-25T12:43:30.100Z,98671.63
2022-09-25T12:46:08.762Z,98670.66
2022-09-25T12:48:45.283Z,98666.69
2022-09-25T12:51:19.035Z,98672.66
2022-09-25T12:53:56.821Z,98671.63
2022-09-25T12:56:30.278Z,98665.19
2022-09-25T12:59:06.262Z,98671.41
2022-09-25T13:01:46.714Z,98677.84
2022-09-25T13:04:56.258Z,98671.16
2022-09-25T13:07:30.263Z,98672.22
2022-09-25T13:09:58.633Z,98675.16
2022-09-25T13:12:34.785Z,98677.63
2022-09-25T13:15:09.768Z,98673.03
2022-09-25T13:17:40.539Z,98678.44
2022-09-25T13:20:44.082Z,98681.13
2022-09-25T13:23:16.500Z,98677.84
2022-09-25T13:25:47.629Z,98676.81
2022-09-25T13:28:23.052Z,98684.66
2022-09-25T13:31:10.144Z,98676.56
2022-09-25T13:33:47.999Z,98683.00
2022-09-25T13:36:36.567Z,98681.13
2022-09-25T13:39:25.416Z,98685.72
2022-09-25T13:41:57.156Z,98691.09
2022-09-25T13:45:06.414Z,98692.16
2022-09-25T13:47:55.086Z,98691.34
2022-09-25T13:50:34.194Z,98694.84
2022-09-25T13:53:21.540Z,98692.16
2022-09-25T13:56:18.727Z,98702.31
2022-09-25T13:59:23.592Z,98709.16
2022-09-25T14:01:55.485Z,98709.16
2022-09-25T14:04:37.528Z,98707.28
2022-09-25T14:07:21.328Z,98717.81
2022-09-25T14:09:54.806Z,98713.72
2022-09-25T14:12:42.346Z,98721.81
2022-09-25T14:15:29.482Z,98724.50
2022-09-25T14:18:01.004Z,98726.16
2022-09-25T14:20:36.330Z,98727.78
2022-09-25T14:23:15.077Z,98725.91
2022-09-25T14:25:47.053Z,98720.31
2022-09-25T14:28:20.707Z,98721.94
2022-09-25T14:31:15.253Z,98720.88
2022-09-25T14:33:58.738Z,98731.91
2022-09-25T14:36:37.288Z,98736.47
2022-09-25T14:39:25.797Z,98742.94
2022-09-25T14:42:16.114Z,98738.81
2022-09-25T14:45:15.113Z,98743.38
2022-09-25T14:47:47.485Z,98735.72
2022-09-25T14:50:21.396Z,98741.94
2022-09-25T14:52:50.719Z,98737.00
2022-09-25T14:55:23.054Z,98742.63
2022-09-25T14:57:53.366Z,98742.63
2022-09-25T15:00:24.743Z,98745.53
2022-09-25T15:02:55.655Z,98754.66
2022-09-25T15:05:33.073Z,98754.66
2022-09-25T15:08:03.516Z,98753.22
2022-09-25T15:10:36.120Z,98756.75
2022-09-25T15:13:12.979Z,98769.41
2022-09-25T15:16:01.958Z,98765.06
2022-09-25T15:18:30.461Z,98765.88
2022-09-25T15:20:59.223Z,98767.75
2022-09-25T15:23:30.625Z,98770.44
2022-09-25T15:26:04.093Z,98771.28
2022-09-25T15:28:40.278Z,98763.19
2022-09-25T15:31:09.168Z,98772.09
2022-09-25T15:33:39.589Z,98770.22
2022-09-25T15:36:17.797Z,98772.91
2022-09-25T15:38:52.976Z,98776.66
2022-09-25T15:41:23.887Z,98783.09
2022-09-25T15:43:53.576Z,98784.16
2022-09-25T15:46:40.032Z,98785.81
2022-09-25T15:49:08.582Z,98793.28
2022-09-25T15:51:38.340Z,98796.78
2022-09-25T15:54:31.445Z,98795.16
2022-09-25T15:57:03.134Z,98792.69
2022-09-25T15:59:35.319Z,98791.25
2022-09-25T16:02:39.228Z,98794.75
2022-09-25T16:05:11.302Z,98797.69
2022-09-25T16:07:40.122Z,98788.78
2022-09-25T16:10:31.873Z,98790.44
2022-09-25T16:13:02.054Z,98797.69
2022-09-25T16:15:50.735Z,98798.50
2022-09-25T16:18:40.660Z,98790.44
2022-09-25T16:21:15.533Z,98786.91
2022-09-25T16:23:44.584Z,98787.72
2022-09-25T16:26:19.831Z,98790.44
2022-09-25T16:29:01.719Z,98791.25
2022-09-25T16:31:30.852Z,98787.72
2022-09-25T16:34:01.172Z,98796.63
2022-09-25T16:36:39.922Z,98796.41
2022-09-25T16:39:25.022Z,98798.28
2022-09-25T16:41:53.914Z,98804.72
2022-09-25T16:44:37.608Z,98803.28
2022-09-25T16:47:18.033Z,98803.28
2022-09-25T16:49:46.727Z,98806.81
2022-09-25T16:52:21.823Z,98809.50
2022-09-25T16:54:57.075Z,98803.28
2022-09-25T16:57:27.914Z,98809.72
2022-09-25T16:59:57.886Z,98798.94
2022-09-25T17:02:33.526Z,98799.78
2022-09-25T17:05:04.100Z,98797.31
2022-09-25T17:07:32.757Z,98807.84
2022-09-25T17:10:01.704Z,98809.72
2022-09-25T17:12:34.255Z,98808.09
2022-09-25T17:15:04.082Z,98812.41
2022-09-25T17:17:32.617Z,98806.22
2022-09-25T17:20:00.963Z,98803.53
2022-09-25T17:22:31.212Z,98817.81
2022-09-25T17:25:03.145Z,98812.41
2022-09-25T17:27:31.988Z,98815.13
2022-09-25T17:30:01.400Z,98811.38
2022-09-25T17:32:33.976Z,98809.50
2022-09-25T17:35:02.418Z,98815.75
2022-09-25T17:37:31.588Z,98810.34
2022-09-25T17:40:00.097Z,98815.75
2022-09-25T17:42:28.495Z,98816.56
2022-09-25T17:44:57.650Z,98814.69
2022-09-25T17:47:27.517Z,98822.53
2022-09-25T17:49:57.652Z,98825.47
2022-09-25T17:52:26.515Z,98823.59
2022-09-25T17:54:54.913Z,98820.91
2022-09-25T17:57:23.279Z,98818.81
2022-09-25T17:59:52.207Z,98817.16
2022-09-25T18:02:20.631Z,98822.53
2022-09-25T18:04:49.099Z,98826.06
2022-09-25T18:07:18.962Z,98823.16
2022-09-25T18:09:47.277Z,98820.47
2022-09-25T18:12:15.581Z,98825.03
2022-09-25T18:14:45.803Z,98822.34
2022-09-25T18:17:16.013Z,98821.28
2022-09-25T18:20:02.115Z,98823.97
2022-09-25T18:22:32.964Z,98831.22
2022-09-25T18:25:01.340Z,98822.91
2022-09-25T18:27:33.215Z,98821.28
2022-09-25T18:30:01.765Z,98833.69
2022-09-25T18:32:33.075Z,98835.38
2022-09-25T18:35:03.054Z,98827.28
2022-09-25T18:37:33.340Z,98822.09
2022-09-25T18:40:01.970Z,98819.41
2022-09-25T18:42:32.405Z,98824.78
2022-09-25T18:45:00.921Z,98819.63
2022-09-25T18:47:29.728Z,98820.22
2022-09-25T18:49:58.307Z,98822.91
2022-09-25T18:52:26.979Z,98830.19
2022-09-25T18:54:56.875Z,98827.72
2022-09-25T18:57:25.243Z,98835.56
2022-09-25T18:59:54.016Z,98828.53
2022-09-25T19:02:25.495Z,98837.44
2022-09-25T19:04:56.104Z,98833.94
2022-09-25T19:07:25.893Z,98833.94
2022-09-25T19:09:55.157Z,98832.06
2022-09-25T19:12:25.346Z,98834.13
2022-09-25T19:14:53.965Z,98831.44
2022-09-25T19:17:41.461Z,98837.69
2022-09-25T19:20:11.518Z,98833.31
2022-09-25T19:22:41.484Z,98836.81
2022-09-25T19:25:10.782Z,98839.75
2022-09-25T19:27:40.507Z,98837.88
2022-09-25T19:30:09.986Z,98846.78
2022-09-25T19:32:38.923Z,98845.97
2022-09-25T19:35:08.179Z,98848.66
2022-09-25T19:37:36.737Z,98848.66
2022-09-25T19:40:23.303Z,98854.06
2022-09-25T19:42:53.590Z,98861.31
2022-09-25T19:45:22.314Z,98856.16
2022-09-25T19:47:50.866Z,98852.84
2022-09-25T19:50:19.314Z,98856.34
2022-09-25T19:52:50.899Z,98855.53
2022-09-25T19:55:19.891Z,98862.19
2022-09-25T19:57:48.521Z,98861.16
2022-09-25T20:00:18.869Z,98866.56
2022-09-25T20:02:47.901Z,98866.16
2022-09-25T20:05:17.274Z,98858.09
2022-09-25T20:07:45.710Z,98857.47
2022-09-25T20:10:14.203Z,98863.66
2022-09-25T20:12:42.591Z,98863.91
2022-09-25T20:15:11.729Z,98857.50
2022-09-25T20:17:41.652Z,98863.16
2022-09-25T20:20:10.157Z,98861.13
2022-09-25T20:22:38.464Z,98871.94
2022-09-25T20:25:07.723Z,98869.88
2022-09-25T20:27:36.698Z,98875.53
2022-09-25T20:30:05.907Z,98874.09
2022-09-25T20:32:35.287Z,98869.97
2022-09-25T20:35:05.378Z,98865.84
2022-09-25T20:37:33.782Z,98869.78
2022-09-25T20:40:02.551Z,98868.38
2022-09-25T20:42:31.582Z,98873.34
2022-09-25T20:44:59.914Z,98883.28
2022-09-25T20:47:33.587Z,98878.28
2022-09-25T20:50:02.364Z,98873.94
2022-09-25T20:52:34.898Z,98871.88
2022-09-25T20:55:03.262Z,98873.53
2022-09-25T20:57:33.729Z,98869.19
2022-09-25T21:00:03.491Z,98869.38
2022-09-25T21:02:35.302Z,98868.38
2022-09-25T21:05:03.716Z,98876.06
2022-09-25T21:07:33.707Z,98867.13
2022-09-25T21:10:02.160Z,98868.38
2022-09-25T21:12:31.238Z,98879.53
2022-09-25T21:14:59.614Z,98872.88
2022-09-25T21:17:27.961Z,98868.09
2022-09-25T21:19:56.353Z,98876.78
2022-09-25T21:22:24.926Z,98871.41
2022-09-25T21:24:55.038Z,98871.41
2022-09-25T21:27:23.495Z,98877.22
2022-09-25T21:29:52.235Z,98881.75
2022-09-25T21:32:20.705Z,98884.91
2022-09-25T21:34:49.058Z,98888.19
2022-09-25T21:37:17.392Z,98889.03
2022-09-25T21:39:46.400Z,98890.91
2022-09-25T21:42:16.485Z,98895.03
2022-09-25T21:44:46.184Z,98888.41
2022-09-25T21:47:15.488Z,98895.44
2022-09-25T21:49:44.166Z,98893.31
2022-09-25T21:52:12.777Z,98895.00
2022-09-25T21:54:41.121Z,98902.66
2022-09-25T21:57:09.616Z,98900.78
2022-09-25T21:59:40.545Z,98903.06
2022-09-25T22:02:08.967Z,98898.47
2022-09-25T22:04:37.437Z,98907.16
2022-09-25T22:07:06.316Z,98904.47
2022-09-25T22:09:35.159Z,98911.72
2022-09-25T22:12:03.702Z,98909.25
2022-09-25T22:14:32.182Z,98911.94
2022-09-25T22:17:02.061Z,98907.38
2022-09-25T22:19:31.636Z,98908.44
2022-09-25T22:22:01.006Z,98911.72
2022-09-25T22:24:29.488Z,98918.97
2022-09-25T22:26:57.933Z,98909.03
2022-09-25T22:29:26.695Z,98909.66
2022-09-25T22:31:55.695Z,98904.25
2022-09-25T22:34:27.057Z,98906.97
2022-09-25T22:36:59.498Z,98907.78
2022-09-25T22:39:29.803Z,98907.78
2022-09-25T22:41:58.264Z,98908.59
2022-09-25T22:44:27.386Z,98909.66
2022-09-25T22:46:56.087Z,98915.88
2022-09-25T22:49:26.026Z,98910.25
2022-09-25T22:51:54.419Z,98910.25
2022-09-25T22:54:22.853Z,98911.28
2022-09-25T22:56:53.680Z,98910.25
2022-09-25T22:59:22.109Z,98907.56
2022-09-25T23:01:53.119Z,98920.81
2022-09-25T23:04:23.640Z,98918.31
2022-09-25T23:06:54.033Z,98916.44
2022-09-25T23:09:25.069Z,98922.88
2022-09-25T23:11:54.070Z,98924.53
2022-09-25T23:14:25.103Z,98931.78
2022-09-25T23:16:55.867Z,98929.91
2022-09-25T23:19:24.740Z,98935.31
2022-09-25T23:21:55.288Z,98938.84
2022-09-25T23:24:25.457Z,98935.31
2022-09-25T23:26:55.188Z,98932.41
2022-09-25T23:29:23.963Z,98931.59
2022-09-25T23:31:52.781Z,98931.59
2022-09-25T23:34:21.283Z,98934.28
2022-09-25T23:36:50.004Z,98934.28
2022-09-25T23:39:21.917Z,98934.28
2022-09-25T23:41:50.363Z,98935.09
2022-09-25T23:44:18.784Z,98940.28
2022-09-25T23:46:47.146Z,98942.97
2022-09-25T23:49:16.468Z,98934.06
2022-09-25T23:51:46.373Z,98941.94
2022-09-25T23:54:15.363Z,98942.38
2022-09-25T23:56:45.350Z,98939.69
2022-09-25T23:59:15.082Z,98938.00
